createdAt,value
2018-09-18T00:00:24.592Z,12.60
2018-09-18T00:02:53.334Z,12.80
2018-09-18T00:05:22.131Z,12.90
2018-09-18T00:07:50.937Z,12.80
2018-09-18T00:10:19.722Z,12.70
2018-09-18T00:12:48.525Z,12.70
2018-09-18T00:15:17.351Z,12.70
2018-09-18T00:17:46.112Z,12.80
2018-09-18T00:20:14.960Z,12.80
2018-09-18T00:22:43.783Z,12.80
2018-09-18T00:25:12.574Z,12.70
2018-09-18T00:27:41.396Z,12.80
2018-09-18T00:30:10.197Z,12.80
2018-09-18T00:32:39.380Z,12.80
2018-09-18T00:35:08.168Z,12.80
2018-09-18T00:37:36.909Z,12.80
2018-09-18T00:40:05.936Z,12.70
2018-09-18T00:42:34.748Z,12.60
2018-09-18T00:45:03.606Z,12.60
2018-09-18T00:47:32.380Z,12.30
2018-09-18T00:50:01.170Z,12.10
2018-09-18T00:52:29.913Z,12.10
2018-09-18T00:54:59.183Z,12.10
2018-09-18T00:57:28.017Z,12.10
2018-09-18T00:59:56.784Z,12.10
2018-09-18T01:02:25.620Z,12.10
2018-09-18T01:04:54.913Z,12.10
2018-09-18T01:07:23.806Z,12.00
2018-09-18T01:09:52.601Z,11.90
2018-09-18T01:12:21.389Z,11.80
2018-09-18T01:14:50.246Z,11.80
2018-09-18T01:17:19.020Z,11.90
2018-09-18T01:19:47.809Z,11.90
2018-09-18T01:22:16.589Z,12.00
2018-09-18T01:24:45.348Z,12.00
2018-09-18T01:27:14.180Z,11.80
2018-09-18T01:29:43.159Z,11.80
2018-09-18T01:32:11.969Z,11.80
2018-09-18T01:34:40.794Z,11.80
2018-09-18T01:37:09.535Z,11.80
2018-09-18T01:39:38.317Z,11.50
2018-09-18T01:42:07.116Z,11.40
2018-09-18T01:44:36.023Z,11.30
2018-09-18T01:47:04.863Z,11.30
2018-09-18T01:49:33.639Z,11.30
2018-09-18T01:52:02.463Z,11.50
2018-09-18T01:54:31.530Z,11.50
2018-09-18T01:57:00.407Z,11.70
2018-09-18T01:59:29.255Z,11.80
2018-09-18T02:01:58.030Z,11.90
2018-09-18T02:04:26.817Z,12.10
2018-09-18T02:06:55.631Z,12.00
2018-09-18T02:09:24.418Z,11.80
2018-09-18T02:11:53.210Z,11.70
2018-09-18T02:14:22.019Z,11.70
2018-09-18T02:16:50.795Z,11.70
2018-09-18T02:19:19.605Z,11.70
2018-09-18T02:21:48.399Z,11.70
2018-09-18T02:24:17.161Z,11.60
2018-09-18T02:26:45.990Z,11.40
2018-09-18T02:29:14.758Z,11.10
2018-09-18T02:31:43.521Z,11.00
2018-09-18T02:34:12.282Z,11.00
2018-09-18T02:36:41.056Z,10.90
2018-09-18T02:39:11.654Z,11.00
2018-09-18T02:41:40.812Z,11.10
2018-09-18T02:44:09.624Z,11.20
2018-09-18T02:46:38.458Z,11.20
2018-09-18T02:49:07.411Z,11.10
2018-09-18T02:51:36.207Z,11.00
2018-09-18T02:54:05.014Z,11.10
2018-09-18T02:56:33.801Z,11.20
2018-09-18T02:59:02.596Z,11.30
2018-09-18T03:01:31.483Z,11.40
2018-09-18T03:04:00.297Z,11.40
2018-09-18T03:06:29.065Z,11.20
2018-09-18T03:08:57.932Z,11.30
2018-09-18T03:11:26.839Z,11.30
2018-09-18T03:13:55.541Z,11.20
2018-09-18T03:16:24.401Z,11.20
2018-09-18T03:18:53.169Z,11.00
2018-09-18T03:21:22.043Z,11.00
2018-09-18T03:23:50.768Z,10.90
2018-09-18T03:26:19.707Z,10.90
2018-09-18T03:28:48.545Z,11.00
2018-09-18T03:31:17.368Z,11.00
2018-09-18T03:33:46.140Z,11.00
2018-09-18T03:36:14.890Z,11.00
2018-09-18T03:38:43.748Z,11.00
2018-09-18T03:41:12.510Z,11.00
2018-09-18T03:43:41.327Z,10.90
2018-09-18T03:46:10.159Z,10.90
2018-09-18T03:48:38.918Z,10.90
2018-09-18T03:51:07.732Z,10.90
2018-09-18T03:53:36.523Z,10.80
2018-09-18T03:56:05.343Z,10.80
2018-09-18T03:58:34.101Z,10.80
2018-09-18T04:01:02.950Z,10.80
2018-09-18T04:03:31.884Z,10.90
2018-09-18T04:06:00.667Z,10.80
2018-09-18T04:08:29.797Z,10.90
2018-09-18T04:10:59.489Z,10.90
2018-09-18T04:13:28.321Z,10.90
2018-09-18T04:15:57.074Z,10.90
2018-09-18T04:18:27.111Z,11.00
2018-09-18T04:20:55.926Z,11.00
2018-09-18T04:23:24.800Z,11.10
2018-09-18T04:25:53.616Z,11.20
2018-09-18T04:28:22.557Z,11.30
2018-09-18T04:30:51.381Z,11.30
2018-09-18T04:33:20.217Z,11.30
2018-09-18T04:35:48.982Z,11.30
2018-09-18T04:38:18.892Z,11.40
2018-09-18T04:40:47.700Z,11.30
2018-09-18T04:43:16.480Z,11.20
2018-09-18T04:45:45.428Z,11.00
2018-09-18T04:48:14.183Z,11.00
2018-09-18T04:50:42.941Z,10.90
2018-09-18T04:53:11.697Z,10.80
2018-09-18T04:55:40.515Z,10.80
2018-09-18T04:58:09.315Z,10.90
2018-09-18T05:00:38.094Z,10.90
2018-09-18T05:03:06.901Z,10.90
2018-09-18T05:05:35.693Z,11.00
2018-09-18T05:08:04.487Z,11.00
2018-09-18T05:10:33.323Z,10.90
2018-09-18T05:13:02.198Z,11.00
2018-09-18T05:15:31.659Z,10.90
2018-09-18T05:18:00.466Z,10.90
2018-09-18T05:20:29.349Z,10.90
2018-09-18T05:22:58.196Z,11.00
2018-09-18T05:25:26.993Z,11.20
2018-09-18T05:27:55.772Z,11.40
2018-09-18T05:30:24.592Z,11.50
2018-09-18T05:32:53.366Z,11.60
2018-09-18T05:35:22.157Z,11.60
2018-09-18T05:37:51.025Z,12.00
2018-09-18T05:40:19.778Z,12.10
2018-09-18T05:42:48.567Z,12.30
2018-09-18T05:45:18.268Z,12.40
2018-09-18T05:47:47.060Z,12.50
2018-09-18T05:50:15.850Z,12.90
2018-09-18T05:52:44.631Z,13.10
2018-09-18T05:55:13.420Z,13.50
2018-09-18T05:57:42.229Z,14.20
2018-09-18T06:00:11.046Z,14.90
2018-09-18T06:02:39.914Z,15.40
2018-09-18T06:05:09.034Z,15.10
2018-09-18T06:07:38.125Z,15.20
2018-09-18T06:10:07.235Z,14.90
2018-09-18T06:12:36.258Z,14.60
2018-09-18T06:15:05.247Z,14.30
2018-09-18T06:17:34.017Z,14.10
2018-09-18T06:20:02.914Z,14.40
2018-09-18T06:22:31.788Z,14.90
2018-09-18T06:25:00.626Z,15.60
2018-09-18T06:27:29.396Z,16.50
2018-09-18T06:29:58.204Z,17.10
2018-09-18T06:32:26.981Z,17.50
2018-09-18T06:34:55.768Z,18.10
2018-09-18T06:37:24.570Z,18.90
2018-09-18T06:39:53.366Z,19.90
2018-09-18T06:42:22.153Z,20.70
2018-09-18T06:44:50.920Z,20.70
2018-09-18T06:47:19.851Z,21.40
2018-09-18T06:49:48.619Z,22.20
2018-09-18T06:52:18.321Z,23.00
2018-09-18T06:54:47.093Z,23.50
2018-09-18T06:57:15.905Z,24.00
2018-09-18T06:59:44.678Z,24.40
2018-09-18T07:02:13.500Z,24.70
2018-09-18T07:04:42.337Z,24.60
2018-09-18T07:07:11.132Z,23.80
2018-09-18T07:09:39.924Z,23.90
2018-09-18T07:12:08.735Z,23.90
2018-09-18T07:14:37.515Z,24.10
2018-09-18T07:17:06.333Z,24.10
2018-09-18T07:19:35.130Z,23.70
2018-09-18T07:22:03.960Z,23.40
2018-09-18T07:24:32.752Z,23.20
2018-09-18T07:27:01.620Z,23.20
2018-09-18T07:29:30.429Z,23.10
2018-09-18T07:31:59.156Z,23.20
2018-09-18T07:34:27.914Z,23.40
2018-09-18T07:36:56.669Z,23.80
2018-09-18T07:39:25.472Z,24.20
2018-09-18T07:41:54.233Z,24.70
2018-09-18T07:44:23.046Z,25.20
2018-09-18T07:46:51.832Z,25.20
2018-09-18T07:49:20.629Z,25.30
2018-09-18T07:51:49.391Z,25.60
2018-09-18T07:54:18.225Z,26.00
2018-09-18T07:56:47.089Z,26.00
2018-09-18T07:59:15.853Z,26.20
2018-09-18T08:01:44.701Z,26.00
2018-09-18T08:04:13.480Z,26.20
2018-09-18T08:06:42.317Z,26.20
2018-09-18T08:09:11.657Z,26.40
2018-09-18T08:11:40.588Z,26.30
2018-09-18T08:14:09.380Z,26.20
2018-09-18T08:16:38.165Z,26.60
2018-09-18T08:19:07.062Z,26.80
2018-09-18T08:21:35.809Z,27.30
2018-09-18T08:24:05.017Z,27.40
2018-09-18T08:26:33.866Z,27.70
2018-09-18T08:29:02.681Z,28.00
2018-09-18T08:31:31.453Z,28.10
2018-09-18T08:34:00.802Z,27.90
2018-09-18T08:36:29.950Z,27.80
2018-09-18T08:38:58.734Z,27.90
2018-09-18T08:41:27.606Z,28.00
2018-09-18T08:43:56.382Z,28.00
2018-09-18T08:46:25.202Z,27.80
2018-09-18T08:48:56.492Z,28.20
2018-09-18T08:51:25.621Z,28.30
2018-09-18T08:53:54.398Z,28.20
2018-09-18T08:56:23.176Z,28.60
2018-09-18T08:58:52.222Z,28.80
2018-09-18T09:01:20.999Z,28.90
2018-09-18T09:03:49.815Z,29.20
2018-09-18T09:06:18.635Z,29.00
2018-09-18T09:08:47.429Z,29.00
2018-09-18T09:11:16.254Z,29.20
2018-09-18T09:13:45.071Z,29.00
2018-09-18T09:16:13.959Z,29.10
2018-09-18T09:18:42.759Z,29.40
2018-09-18T09:21:11.632Z,29.40
2018-09-18T09:23:40.336Z,29.40
2018-09-18T09:26:09.127Z,29.90
2018-09-18T09:28:37.973Z,30.30
2018-09-18T09:31:06.787Z,30.60
2018-09-18T09:33:35.638Z,30.60
2018-09-18T09:36:04.393Z,30.40
2018-09-18T09:38:33.221Z,30.20
2018-09-18T09:41:01.967Z,30.40
2018-09-18T09:43:31.098Z,30.60
2018-09-18T09:45:59.841Z,30.70
2018-09-18T09:48:33.029Z,30.70
2018-09-18T09:51:02.684Z,30.40
2018-09-18T09:53:31.455Z,30.70
2018-09-18T09:56:00.260Z,31.10
2018-09-18T09:58:29.062Z,31.20
2018-09-18T10:01:03.033Z,30.90
2018-09-18T10:03:32.169Z,30.40
2018-09-18T10:06:00.936Z,30.50
2018-09-18T10:08:29.715Z,30.80
2018-09-18T10:10:58.767Z,31.20
2018-09-18T10:13:27.427Z,31.40
2018-09-18T10:15:56.232Z,31.40
2018-09-18T10:18:25.129Z,31.10
2018-09-18T10:20:53.921Z,31.10
2018-09-18T10:23:22.705Z,31.30
2018-09-18T10:25:51.581Z,31.30
2018-09-18T10:28:20.343Z,31.30
2018-09-18T10:30:49.168Z,31.10
2018-09-18T10:33:17.967Z,31.10
2018-09-18T10:35:46.763Z,31.30
2018-09-18T10:38:15.521Z,31.50
2018-09-18T10:40:44.314Z,31.50
2018-09-18T10:43:13.097Z,31.70
2018-09-18T10:45:42.075Z,31.60
2018-09-18T10:48:10.856Z,31.70
2018-09-18T10:50:39.660Z,32.20
2018-09-18T10:53:08.465Z,32.50
2018-09-18T10:55:37.273Z,32.70
2018-09-18T10:58:06.440Z,32.80
2018-09-18T11:00:35.531Z,32.30
2018-09-18T11:03:04.323Z,32.60
2018-09-18T11:05:33.178Z,32.90
2018-09-18T11:08:01.988Z,33.00
2018-09-18T11:10:30.735Z,33.10
2018-09-18T11:12:59.608Z,33.00
2018-09-18T11:15:28.498Z,33.10
2018-09-18T11:17:57.428Z,32.10
2018-09-18T11:20:26.177Z,32.40
2018-09-18T11:22:54.934Z,32.50
2018-09-18T11:25:23.681Z,31.80
2018-09-18T11:27:52.702Z,32.20
2018-09-18T11:30:21.574Z,32.70
2018-09-18T11:32:50.470Z,32.90
2018-09-18T11:35:19.160Z,33.00
2018-09-18T11:37:47.996Z,32.90
2018-09-18T11:40:16.846Z,32.70
2018-09-18T11:42:45.628Z,32.90
2018-09-18T11:45:14.435Z,33.10
2018-09-18T11:47:43.207Z,33.30
2018-09-18T11:50:12.017Z,33.10
2018-09-18T11:52:40.848Z,33.20
2018-09-18T11:55:09.664Z,33.40
2018-09-18T11:57:38.482Z,33.40
2018-09-18T12:00:07.422Z,33.50
2018-09-18T12:02:36.251Z,33.10
2018-09-18T12:05:05.194Z,32.80
2018-09-18T12:07:33.900Z,33.30
2018-09-18T12:10:02.829Z,33.10
2018-09-18T12:12:31.591Z,33.10
2018-09-18T12:15:00.340Z,33.40
2018-09-18T12:17:29.173Z,34.10
2018-09-18T12:19:57.970Z,34.50
2018-09-18T12:22:26.828Z,34.70
2018-09-18T12:24:55.610Z,35.00
2018-09-18T12:27:24.427Z,35.40
2018-09-18T12:29:53.397Z,35.40
2018-09-18T12:32:22.209Z,35.40
2018-09-18T12:34:50.992Z,34.80
2018-09-18T12:37:19.808Z,34.40
2018-09-18T12:39:48.581Z,34.10
2018-09-18T12:42:17.629Z,33.60
2018-09-18T12:44:47.228Z,33.20
2018-09-18T12:47:16.183Z,32.90
2018-09-18T12:49:45.144Z,32.70
2018-09-18T12:52:18.030Z,33.10
2018-09-18T12:54:46.993Z,33.10
2018-09-18T12:57:16.655Z,32.80
2018-09-18T12:59:45.740Z,32.70
2018-09-18T13:02:15.047Z,32.90
2018-09-18T13:04:50.456Z,33.30
2018-09-18T13:07:20.328Z,33.50
2018-09-18T13:09:49.159Z,34.00
2018-09-18T13:12:24.446Z,33.80
2018-09-18T13:14:53.263Z,34.20
2018-09-18T13:17:22.243Z,34.30
2018-09-18T13:19:51.189Z,34.60
2018-09-18T13:22:19.967Z,34.40
2018-09-18T13:24:48.986Z,34.00
2018-09-18T13:27:17.801Z,33.60
2018-09-18T13:29:46.565Z,33.20
2018-09-18T13:32:15.424Z,33.00
2018-09-18T13:34:44.197Z,32.50
2018-09-18T13:37:12.921Z,32.20
2018-09-18T13:39:41.736Z,32.10
2018-09-18T13:42:10.554Z,32.20
2018-09-18T13:44:39.305Z,32.10
2018-09-18T13:47:08.169Z,31.90
2018-09-18T13:49:37.005Z,32.00
2018-09-18T13:52:05.806Z,31.80
2018-09-18T13:54:34.592Z,31.80
2018-09-18T13:57:03.360Z,31.50
2018-09-18T13:59:32.218Z,31.60
2018-09-18T14:02:01.029Z,31.50
2018-09-18T14:04:29.871Z,31.50
2018-09-18T14:06:58.776Z,31.50
2018-09-18T14:09:27.620Z,31.40
2018-09-18T14:11:56.438Z,31.30
2018-09-18T14:14:25.298Z,31.20
2018-09-18T14:16:54.043Z,31.30
2018-09-18T14:19:22.834Z,31.40
2018-09-18T14:21:51.565Z,31.40
2018-09-18T14:24:20.404Z,31.40
2018-09-18T14:26:49.156Z,31.40
2018-09-18T14:29:17.970Z,31.30
2018-09-18T14:31:46.761Z,31.30
2018-09-18T14:34:15.556Z,31.40
2018-09-18T14:36:44.319Z,31.20
2018-09-18T14:39:13.109Z,31.10
2018-09-18T14:41:42.096Z,31.00
2018-09-18T14:44:10.921Z,31.00
2018-09-18T14:46:40.702Z,31.00
2018-09-18T14:49:16.598Z,30.90
2018-09-18T14:51:45.458Z,31.10
2018-09-18T14:54:14.308Z,30.80
2018-09-18T14:56:43.132Z,30.70
2018-09-18T14:59:11.982Z,30.60
2018-09-18T15:01:40.729Z,30.60
2018-09-18T15:04:09.517Z,30.50
2018-09-18T15:06:38.330Z,30.40
2018-09-18T15:09:08.919Z,30.30
2018-09-18T15:11:37.728Z,30.30
2018-09-18T15:14:06.682Z,30.40
2018-09-18T15:16:35.937Z,30.60
2018-09-18T15:19:05.544Z,30.10
2018-09-18T15:21:36.468Z,30.20
2018-09-18T15:24:05.367Z,30.30
2018-09-18T15:26:35.676Z,30.30
2018-09-18T15:29:04.956Z,30.30
2018-09-18T15:31:37.602Z,30.30
2018-09-18T15:34:07.728Z,30.30
2018-09-18T15:36:36.985Z,30.30
2018-09-18T15:39:09.058Z,30.10
2018-09-18T15:41:38.760Z,29.90
2018-09-18T15:44:07.654Z,29.90
2018-09-18T15:46:36.767Z,29.80
2018-09-18T15:49:05.639Z,29.80
2018-09-18T15:51:34.433Z,29.80
2018-09-18T15:54:04.437Z,29.70
2018-09-18T15:56:37.698Z,29.80
2018-09-18T15:59:07.197Z,29.70
2018-09-18T16:01:37.198Z,29.60
2018-09-18T16:04:06.163Z,29.40
2018-09-18T16:06:36.568Z,29.40
2018-09-18T16:09:12.077Z,29.40
2018-09-18T16:11:44.266Z,29.50
2018-09-18T16:14:14.827Z,29.50
2018-09-18T16:16:44.152Z,29.50
2018-09-18T16:19:14.688Z,29.40
2018-09-18T16:21:45.197Z,29.20
2018-09-18T16:24:13.987Z,29.10
2018-09-18T16:26:43.236Z,29.00
2018-09-18T16:29:12.009Z,28.90
2018-09-18T16:31:41.265Z,28.80
2018-09-18T16:34:10.082Z,28.70
2018-09-18T16:36:39.033Z,28.60
2018-09-18T16:39:07.797Z,28.40
2018-09-18T16:41:36.633Z,28.40
2018-09-18T16:44:06.123Z,28.40
2018-09-18T16:46:34.879Z,28.20
2018-09-18T16:49:04.676Z,28.10
2018-09-18T16:51:36.425Z,28.00
2018-09-18T16:54:05.330Z,28.00
2018-09-18T16:56:34.124Z,27.80
2018-09-18T16:59:02.945Z,27.70
2018-09-18T17:01:31.736Z,27.70
2018-09-18T17:04:00.619Z,27.70
2018-09-18T17:06:29.478Z,27.50
2018-09-18T17:08:58.341Z,27.50
2018-09-18T17:11:27.150Z,27.40
2018-09-18T17:13:55.946Z,27.40
2018-09-18T17:16:24.934Z,27.30
2018-09-18T17:18:53.798Z,27.30
2018-09-18T17:21:22.607Z,27.20
2018-09-18T17:23:51.426Z,27.10
2018-09-18T17:26:20.294Z,27.00
2018-09-18T17:28:49.885Z,26.90
2018-09-18T17:31:18.454Z,26.70
2018-09-18T17:33:47.385Z,26.60
2018-09-18T17:36:16.238Z,26.60
2018-09-18T17:38:47.133Z,26.50
2018-09-18T17:41:18.252Z,26.30
2018-09-18T17:43:47.021Z,26.20
2018-09-18T17:46:15.885Z,26.00
2018-09-18T17:48:44.620Z,26.00
2018-09-18T17:51:13.575Z,26.00
2018-09-18T17:53:42.380Z,26.00
2018-09-18T17:56:11.272Z,25.90
2018-09-18T17:58:40.082Z,25.80
2018-09-18T18:01:08.951Z,25.70
2018-09-18T18:03:37.734Z,25.70
2018-09-18T18:06:06.571Z,25.60
2018-09-18T18:08:35.365Z,25.50
2018-09-18T18:11:04.308Z,25.40
2018-09-18T18:13:34.084Z,25.30
2018-09-18T18:16:03.502Z,25.30
2018-09-18T18:18:32.301Z,25.20
2018-09-18T18:21:01.509Z,25.10
2018-09-18T18:23:31.946Z,25.00
2018-09-18T18:26:01.573Z,24.90
2018-09-18T18:28:30.390Z,24.80
2018-09-18T18:30:59.221Z,24.80
2018-09-18T18:33:28.496Z,24.70
2018-09-18T18:35:58.631Z,24.70
2018-09-18T18:38:28.059Z,24.60
2018-09-18T18:41:03.485Z,24.60
2018-09-18T18:43:34.682Z,24.60
2018-09-18T18:46:06.284Z,24.60
2018-09-18T18:48:35.841Z,24.50
2018-09-18T18:51:05.571Z,24.40
2018-09-18T18:53:35.365Z,24.40
2018-09-18T18:56:06.079Z,24.30
2018-09-18T18:58:34.809Z,24.20
2018-09-18T19:01:05.916Z,24.10
2018-09-18T19:03:34.904Z,24.10
2018-09-18T19:06:03.862Z,24.00
2018-09-18T19:08:32.659Z,24.00
2018-09-18T19:11:01.447Z,24.00
2018-09-18T19:13:30.564Z,23.90
2018-09-18T19:15:59.444Z,23.90
2018-09-18T19:18:28.382Z,23.80
2018-09-18T19:20:57.221Z,23.60
2018-09-18T19:23:27.579Z,23.40
2018-09-18T19:25:56.933Z,23.30
2018-09-18T19:28:26.879Z,23.20
2018-09-18T19:30:55.825Z,23.10
2018-09-18T19:33:24.954Z,23.00
2018-09-18T19:35:54.092Z,22.90
2018-09-18T19:38:23.065Z,22.80
2018-09-18T19:40:53.174Z,22.60
2018-09-18T19:43:23.619Z,22.60
2018-09-18T19:45:53.763Z,22.50
2018-09-18T19:48:22.700Z,22.30
2018-09-18T19:50:51.587Z,22.20
2018-09-18T19:53:21.781Z,22.20
2018-09-18T19:55:51.330Z,22.20
2018-09-18T19:58:20.105Z,22.10
2018-09-18T20:00:48.877Z,22.00
2018-09-18T20:03:18.813Z,22.00
2018-09-18T20:05:50.196Z,21.90
2018-09-18T20:08:19.027Z,21.80
2018-09-18T20:10:48.487Z,21.50
2018-09-18T20:13:17.805Z,21.30
2018-09-18T20:15:46.740Z,21.10
2018-09-18T20:18:15.541Z,21.00
2018-09-18T20:20:44.348Z,20.80
2018-09-18T20:23:13.373Z,20.80
2018-09-18T20:25:42.156Z,20.60
2018-09-18T20:28:10.960Z,20.50
2018-09-18T20:30:39.752Z,20.50
2018-09-18T20:33:08.548Z,20.50
2018-09-18T20:35:37.389Z,20.40
2018-09-18T20:38:06.285Z,20.30
2018-09-18T20:40:35.088Z,20.20
2018-09-18T20:43:03.836Z,20.20
2018-09-18T20:45:32.645Z,20.20
2018-09-18T20:48:01.450Z,20.10
2018-09-18T20:50:30.320Z,19.80
2018-09-18T20:52:59.066Z,19.70
2018-09-18T20:55:27.828Z,19.60
2018-09-18T20:57:56.701Z,19.40
2018-09-18T21:00:25.501Z,19.20
2018-09-18T21:02:54.277Z,19.10
2018-09-18T21:05:23.116Z,19.10
2018-09-18T21:07:51.974Z,19.10
2018-09-18T21:10:20.762Z,19.20
2018-09-18T21:12:49.528Z,19.30
2018-09-18T21:15:18.356Z,19.40
2018-09-18T21:17:47.144Z,19.60
2018-09-18T21:20:15.987Z,19.70
2018-09-18T21:22:45.691Z,19.70
2018-09-18T21:25:18.125Z,19.70
2018-09-18T21:27:47.821Z,19.60
2018-09-18T21:30:17.442Z,19.60
2018-09-18T21:32:46.286Z,19.50
2018-09-18T21:35:15.059Z,19.60
2018-09-18T21:37:43.840Z,19.60
2018-09-18T21:40:12.742Z,19.60
2018-09-18T21:42:41.464Z,19.80
2018-09-18T21:45:10.287Z,19.90
2018-09-18T21:47:39.027Z,20.10
2018-09-18T21:50:07.908Z,20.10
2018-09-18T21:52:36.681Z,20.10
2018-09-18T21:55:05.500Z,20.20
2018-09-18T21:57:34.452Z,20.20
2018-09-18T22:00:03.348Z,20.30
2018-09-18T22:02:32.173Z,20.40
2018-09-18T22:05:01.000Z,20.30
2018-09-18T22:07:29.827Z,20.40
2018-09-18T22:09:58.602Z,20.40
2018-09-18T22:12:27.522Z,20.40
2018-09-18T22:14:56.220Z,20.20
2018-09-18T22:17:24.971Z,20.00
2018-09-18T22:19:53.983Z,19.90
2018-09-18T22:22:22.868Z,19.70
2018-09-18T22:24:51.587Z,19.60
2018-09-18T22:27:20.368Z,19.60
2018-09-18T22:29:49.172Z,19.70
2018-09-18T22:32:17.899Z,19.70
2018-09-18T22:34:46.645Z,19.60
2018-09-18T22:37:15.451Z,19.50
2018-09-18T22:39:44.216Z,19.40
2018-09-18T22:42:13.101Z,19.20
2018-09-18T22:44:41.842Z,19.20
2018-09-18T22:47:10.645Z,19.00
2018-09-18T22:49:39.404Z,18.80
2018-09-18T22:52:08.189Z,18.80
2018-09-18T22:54:37.068Z,18.80
2018-09-18T22:57:05.973Z,18.80
2018-09-18T22:59:34.757Z,18.90
2018-09-18T23:02:03.753Z,18.80
2018-09-18T23:04:32.712Z,18.70
2018-09-18T23:07:01.562Z,18.60
2018-09-18T23:09:30.354Z,18.60
2018-09-18T23:11:59.146Z,18.60
2018-09-18T23:14:28.187Z,18.50
2018-09-18T23:16:57.012Z,18.60
2018-09-18T23:19:25.946Z,18.70
2018-09-18T23:21:54.699Z,18.60
2018-09-18T23:24:23.489Z,18.60
2018-09-18T23:26:52.255Z,18.50
2018-09-18T23:29:21.029Z,18.50
2018-09-18T23:31:49.858Z,18.60
2018-09-18T23:34:18.890Z,18.50
2018-09-18T23:36:47.680Z,18.50
2018-09-18T23:39:16.418Z,18.50
2018-09-18T23:41:45.226Z,18.30
2018-09-18T23:44:13.995Z,18.30
2018-09-18T23:46:43.049Z,18.20
2018-09-18T23:49:11.829Z,18.20
2018-09-18T23:51:40.612Z,18.20
2018-09-18T23:54:09.367Z,18.30
2018-09-18T23:56:38.183Z,18.40
2018-09-18T23:59:07.030Z,18.50
